sensor_id;sensor_type;location;lat;lon;timestamp;temperature;humidity
23507;DHT22;11930;53.076;18.250;2024-02-21T00:01:51;5.70;99.90
23507;DHT22;11930;53.076;18.250;2024-02-21T00:04:17;5.70;99.90
23507;DHT22;11930;53.076;18.250;2024-02-21T00:06:43;5.70;99.90
23507;DHT22;11930;53.076;18.250;2024-02-21T00:09:09;5.70;99.90
23507;DHT22;11930;53.076;18.250;2024-02-21T00:11:36;5.70;99.90
23507;DHT22;11930;53.076;18.250;2024-02-21T00:14:02;5.70;99.90
23507;DHT22;11930;53.076;18.250;2024-02-21T00:16:28;5.70;99.90
23507;DHT22;11930;53.076;18.250;2024-02-21T00:18:54;5.80;99.90
23507;DHT22;11930;53.076;18.250;2024-02-21T00:21:20;5.70;99.90
23507;DHT22;11930;53.076;18.250;2024-02-21T00:23:47;5.80;99.90
23507;DHT22;11930;53.076;18.250;2024-02-21T00:26:14;5.70;99.90
23507;DHT22;11930;53.076;18.250;2024-02-21T00:28:40;5.80;99.90
23507;DHT22;11930;53.076;18.250;2024-02-21T00:31:06;5.80;99.90
23507;DHT22;11930;53.076;18.250;2024-02-21T00:33:36;5.80;99.90
23507;DHT22;11930;53.076;18.250;2024-02-21T00:36:02;5.80;99.90
23507;DHT22;11930;53.076;18.250;2024-02-21T00:38:28;5.80;99.90
23507;DHT22;11930;53.076;18.250;2024-02-21T00:40:55;5.80;99.90
23507;DHT22;11930;53.076;18.250;2024-02-21T00:43:21;5.70;99.90
23507;DHT22;11930;53.076;18.250;2024-02-21T00:45:50;5.80;99.90
23507;DHT22;11930;53.076;18.250;2024-02-21T00:48:16;5.80;99.90
23507;DHT22;11930;53.076;18.250;2024-02-21T00:50:42;5.80;99.90
23507;DHT22;11930;53.076;18.250;2024-02-21T00:53:08;5.70;99.90
23507;DHT22;11930;53.076;18.250;2024-02-21T00:55:36;5.70;99.90
23507;DHT22;11930;53.076;18.250;2024-02-21T00:58:02;5.70;99.90
23507;DHT22;11930;53.076;18.250;2024-02-21T01:00:28;5.70;99.90
23507;DHT22;11930;53.076;18.250;2024-02-21T01:02:54;5.70;99.90
23507;DHT22;11930;53.076;18.250;2024-02-21T01:05:21;5.70;99.90
23507;DHT22;11930;53.076;18.250;2024-02-21T01:07:48;5.70;99.90
23507;DHT22;11930;53.076;18.250;2024-02-21T01:10:14;5.70;99.90
23507;DHT22;11930;53.076;18.250;2024-02-21T01:12:41;5.70;99.90
23507;DHT22;11930;53.076;18.250;2024-02-21T01:15:07;5.70;99.90
23507;DHT22;11930;53.076;18.250;2024-02-21T01:17:33;5.60;99.90
23507;DHT22;11930;53.076;18.250;2024-02-21T01:19:59;5.60;99.90
23507;DHT22;11930;53.076;18.250;2024-02-21T01:22:26;5.60;99.90
23507;DHT22;11930;53.076;18.250;2024-02-21T01:24:52;5.60;99.90
23507;DHT22;11930;53.076;18.250;2024-02-21T01:27:18;5.60;99.90
23507;DHT22;11930;53.076;18.250;2024-02-21T01:29:45;5.60;99.90
23507;DHT22;11930;53.076;18.250;2024-02-21T01:32:12;5.60;99.90
23507;DHT22;11930;53.076;18.250;2024-02-21T01:34:38;5.60;99.90
23507;DHT22;11930;53.076;18.250;2024-02-21T01:37:05;5.60;99.90
23507;DHT22;11930;53.076;18.250;2024-02-21T01:39:33;5.60;99.90
23507;DHT22;11930;53.076;18.250;2024-02-21T01:42:00;5.60;99.90
23507;DHT22;11930;53.076;18.250;2024-02-21T01:44:26;5.60;99.90
23507;DHT22;11930;53.076;18.250;2024-02-21T01:46:55;5.60;99.90
23507;DHT22;11930;53.076;18.250;2024-02-21T01:49:21;5.70;99.90
23507;DHT22;11930;53.076;18.250;2024-02-21T01:51:48;5.70;99.90
23507;DHT22;11930;53.076;18.250;2024-02-21T01:54:16;5.70;99.90
23507;DHT22;11930;53.076;18.250;2024-02-21T01:56:43;5.70;99.90
23507;DHT22;11930;53.076;18.250;2024-02-21T01:59:10;5.70;99.90
23507;DHT22;11930;53.076;18.250;2024-02-21T02:01:37;5.70;99.90
23507;DHT22;11930;53.076;18.250;2024-02-21T02:04:04;5.70;99.90
23507;DHT22;11930;53.076;18.250;2024-02-21T02:06:31;5.70;99.90
23507;DHT22;11930;53.076;18.250;2024-02-21T02:08:57;5.60;99.90
23507;DHT22;11930;53.076;18.250;2024-02-21T02:11:24;5.60;99.90
23507;DHT22;11930;53.076;18.250;2024-02-21T02:13:50;5.60;99.90
23507;DHT22;11930;53.076;18.250;2024-02-21T02:16:16;5.50;99.90
23507;DHT22;11930;53.076;18.250;2024-02-21T02:18:42;5.50;99.90
23507;DHT22;11930;53.076;18.250;2024-02-21T02:21:15;5.50;99.90
23507;DHT22;11930;53.076;18.250;2024-02-21T02:23:48;5.50;99.90
23507;DHT22;11930;53.076;18.250;2024-02-21T02:26:14;5.50;99.90
23507;DHT22;11930;53.076;18.250;2024-02-21T02:28:40;5.50;99.90
23507;DHT22;11930;53.076;18.250;2024-02-21T02:31:06;5.50;99.90
23507;DHT22;11930;53.076;18.250;2024-02-21T02:33:32;5.50;99.90
23507;DHT22;11930;53.076;18.250;2024-02-21T02:35:59;5.50;99.90
23507;DHT22;11930;53.076;18.250;2024-02-21T02:38:25;5.60;99.90
23507;DHT22;11930;53.076;18.250;2024-02-21T02:40:51;5.60;99.90
23507;DHT22;11930;53.076;18.250;2024-02-21T02:43:17;5.70;99.90
23507;DHT22;11930;53.076;18.250;2024-02-21T02:45:43;5.70;99.90
23507;DHT22;11930;53.076;18.250;2024-02-21T02:48:09;5.70;99.90
23507;DHT22;11930;53.076;18.250;2024-02-21T02:50:36;5.80;99.90
23507;DHT22;11930;53.076;18.250;2024-02-21T02:53:02;5.80;99.90
23507;DHT22;11930;53.076;18.250;2024-02-21T02:55:28;5.80;99.90
23507;DHT22;11930;53.076;18.250;2024-02-21T02:57:54;5.90;99.90
23507;DHT22;11930;53.076;18.250;2024-02-21T03:00:22;5.80;99.90
23507;DHT22;11930;53.076;18.250;2024-02-21T03:02:49;5.90;99.90
23507;DHT22;11930;53.076;18.250;2024-02-21T03:05:18;5.90;99.90
23507;DHT22;11930;53.076;18.250;2024-02-21T03:07:45;5.90;99.90
23507;DHT22;11930;53.076;18.250;2024-02-21T03:10:12;5.90;99.90
23507;DHT22;11930;53.076;18.250;2024-02-21T03:12:39;5.90;99.90
23507;DHT22;11930;53.076;18.250;2024-02-21T03:15:06;5.90;99.90
23507;DHT22;11930;53.076;18.250;2024-02-21T03:17:33;5.90;99.90
23507;DHT22;11930;53.076;18.250;2024-02-21T03:20:03;5.90;99.90
23507;DHT22;11930;53.076;18.250;2024-02-21T03:22:34;6.00;99.90
23507;DHT22;11930;53.076;18.250;2024-02-21T03:25:01;6.00;99.90
23507;DHT22;11930;53.076;18.250;2024-02-21T03:27:27;6.00;99.90
23507;DHT22;11930;53.076;18.250;2024-02-21T03:29:53;6.00;99.90
23507;DHT22;11930;53.076;18.250;2024-02-21T03:32:19;6.00;99.90
23507;DHT22;11930;53.076;18.250;2024-02-21T03:34:46;6.00;99.90
23507;DHT22;11930;53.076;18.250;2024-02-21T03:37:12;6.00;99.90
23507;DHT22;11930;53.076;18.250;2024-02-21T03:39:40;6.00;99.90
23507;DHT22;11930;53.076;18.250;2024-02-21T03:42:06;6.00;99.90
23507;DHT22;11930;53.076;18.250;2024-02-21T03:44:32;6.00;99.90
23507;DHT22;11930;53.076;18.250;2024-02-21T03:46:59;6.00;99.90
23507;DHT22;11930;53.076;18.250;2024-02-21T03:49:27;6.00;99.90
23507;DHT22;11930;53.076;18.250;2024-02-21T03:51:53;6.00;99.90
23507;DHT22;11930;53.076;18.250;2024-02-21T03:54:20;6.00;99.90
23507;DHT22;11930;53.076;18.250;2024-02-21T03:56:46;6.10;99.90
23507;DHT22;11930;53.076;18.250;2024-02-21T03:59:15;6.10;99.90
23507;DHT22;11930;53.076;18.250;2024-02-21T04:01:41;6.10;99.90
23507;DHT22;11930;53.076;18.250;2024-02-21T04:04:07;6.00;99.90
23507;DHT22;11930;53.076;18.250;2024-02-21T04:06:34;6.00;99.90
23507;DHT22;11930;53.076;18.250;2024-02-21T04:09:00;6.00;99.90
23507;DHT22;11930;53.076;18.250;2024-02-21T04:11:26;6.10;99.90
23507;DHT22;11930;53.076;18.250;2024-02-21T04:13:53;6.10;99.90
23507;DHT22;11930;53.076;18.250;2024-02-21T04:16:19;6.10;99.90
23507;DHT22;11930;53.076;18.250;2024-02-21T04:18:46;6.10;99.90
23507;DHT22;11930;53.076;18.250;2024-02-21T04:21:14;6.10;99.90
23507;DHT22;11930;53.076;18.250;2024-02-21T04:23:42;6.10;99.90
23507;DHT22;11930;53.076;18.250;2024-02-21T04:26:09;6.10;99.90
23507;DHT22;11930;53.076;18.250;2024-02-21T04:28:35;6.10;99.90
23507;DHT22;11930;53.076;18.250;2024-02-21T04:31:01;6.10;99.90
23507;DHT22;11930;53.076;18.250;2024-02-21T04:33:27;6.10;99.90
23507;DHT22;11930;53.076;18.250;2024-02-21T04:35:53;6.10;99.90
23507;DHT22;11930;53.076;18.250;2024-02-21T04:38:21;6.10;99.90
23507;DHT22;11930;53.076;18.250;2024-02-21T04:40:47;6.10;99.90
23507;DHT22;11930;53.076;18.250;2024-02-21T04:43:13;6.10;99.90
23507;DHT22;11930;53.076;18.250;2024-02-21T04:45:39;6.10;99.90
23507;DHT22;11930;53.076;18.250;2024-02-21T04:48:06;6.10;99.90
23507;DHT22;11930;53.076;18.250;2024-02-21T04:50:33;6.10;99.90
23507;DHT22;11930;53.076;18.250;2024-02-21T04:52:59;6.00;99.90
23507;DHT22;11930;53.076;18.250;2024-02-21T04:55:25;6.10;99.90
23507;DHT22;11930;53.076;18.250;2024-02-21T04:57:51;6.00;99.90
23507;DHT22;11930;53.076;18.250;2024-02-21T05:00:17;6.00;99.90
23507;DHT22;11930;53.076;18.250;2024-02-21T05:02:44;6.00;99.90
23507;DHT22;11930;53.076;18.250;2024-02-21T05:05:10;6.00;99.90
23507;DHT22;11930;53.076;18.250;2024-02-21T05:07:36;6.00;99.90
23507;DHT22;11930;53.076;18.250;2024-02-21T05:10:03;6.00;99.90
23507;DHT22;11930;53.076;18.250;2024-02-21T05:12:29;6.00;99.90
23507;DHT22;11930;53.076;18.250;2024-02-21T05:14:56;6.00;99.90
23507;DHT22;11930;53.076;18.250;2024-02-21T05:17:22;6.00;99.90
23507;DHT22;11930;53.076;18.250;2024-02-21T05:19:48;6.00;99.90
23507;DHT22;11930;53.076;18.250;2024-02-21T05:22:14;6.00;99.90
23507;DHT22;11930;53.076;18.250;2024-02-21T05:24:40;6.00;99.90
23507;DHT22;11930;53.076;18.250;2024-02-21T05:27:06;6.00;99.90
23507;DHT22;11930;53.076;18.250;2024-02-21T05:29:33;6.00;99.90
23507;DHT22;11930;53.076;18.250;2024-02-21T05:32:00;6.00;99.90
23507;DHT22;11930;53.076;18.250;2024-02-21T05:34:26;6.00;99.90
23507;DHT22;11930;53.076;18.250;2024-02-21T05:36:53;5.90;99.90
23507;DHT22;11930;53.076;18.250;2024-02-21T05:39:19;5.90;99.90
23507;DHT22;11930;53.076;18.250;2024-02-21T05:41:45;5.90;99.90
23507;DHT22;11930;53.076;18.250;2024-02-21T05:44:12;6.00;99.90
23507;DHT22;11930;53.076;18.250;2024-02-21T05:46:38;6.00;99.90
23507;DHT22;11930;53.076;18.250;2024-02-21T05:49:04;6.00;99.90
23507;DHT22;11930;53.076;18.250;2024-02-21T05:51:34;6.00;99.90
23507;DHT22;11930;53.076;18.250;2024-02-21T05:54:01;5.90;99.90
23507;DHT22;11930;53.076;18.250;2024-02-21T05:56:27;5.90;99.90
23507;DHT22;11930;53.076;18.250;2024-02-21T05:58:54;5.90;99.90
23507;DHT22;11930;53.076;18.250;2024-02-21T06:01:20;5.90;99.90
23507;DHT22;11930;53.076;18.250;2024-02-21T06:03:49;5.90;99.90
23507;DHT22;11930;53.076;18.250;2024-02-21T06:06:15;5.90;99.90
23507;DHT22;11930;53.076;18.250;2024-02-21T06:08:42;5.90;99.90
23507;DHT22;11930;53.076;18.250;2024-02-21T06:11:08;5.90;99.90
23507;DHT22;11930;53.076;18.250;2024-02-21T06:13:38;6.00;99.90
23507;DHT22;11930;53.076;18.250;2024-02-21T06:16:05;5.90;99.90
23507;DHT22;11930;53.076;18.250;2024-02-21T06:18:31;5.90;99.90
23507;DHT22;11930;53.076;18.250;2024-02-21T06:20:58;6.00;99.90
23507;DHT22;11930;53.076;18.250;2024-02-21T06:23:24;6.00;99.90
23507;DHT22;11930;53.076;18.250;2024-02-21T06:25:50;6.00;99.90
23507;DHT22;11930;53.076;18.250;2024-02-21T06:28:16;6.00;99.90
23507;DHT22;11930;53.076;18.250;2024-02-21T06:30:43;6.10;99.90
23507;DHT22;11930;53.076;18.250;2024-02-21T06:33:09;6.00;99.90
23507;DHT22;11930;53.076;18.250;2024-02-21T06:35:35;6.10;99.90
23507;DHT22;11930;53.076;18.250;2024-02-21T06:38:01;6.10;99.90
23507;DHT22;11930;53.076;18.250;2024-02-21T06:40:28;6.10;99.90
23507;DHT22;11930;53.076;18.250;2024-02-21T06:42:54;6.10;99.90
23507;DHT22;11930;53.076;18.250;2024-02-21T06:45:20;6.10;99.90
23507;DHT22;11930;53.076;18.250;2024-02-21T06:47:46;6.10;99.90
23507;DHT22;11930;53.076;18.250;2024-02-21T06:50:13;6.20;99.90
23507;DHT22;11930;53.076;18.250;2024-02-21T06:52:39;6.20;99.90
23507;DHT22;11930;53.076;18.250;2024-02-21T06:55:05;6.20;99.90
23507;DHT22;11930;53.076;18.250;2024-02-21T06:57:31;6.20;99.90
23507;DHT22;11930;53.076;18.250;2024-02-21T06:59:58;6.20;99.90
23507;DHT22;11930;53.076;18.250;2024-02-21T07:02:24;6.20;99.90
23507;DHT22;11930;53.076;18.250;2024-02-21T07:04:50;6.20;99.90
23507;DHT22;11930;53.076;18.250;2024-02-21T07:07:16;6.30;99.90
23507;DHT22;11930;53.076;18.250;2024-02-21T07:09:42;6.30;99.90
23507;DHT22;11930;53.076;18.250;2024-02-21T07:12:08;6.30;99.90
23507;DHT22;11930;53.076;18.250;2024-02-21T07:14:35;6.30;99.90
23507;DHT22;11930;53.076;18.250;2024-02-21T07:17:02;6.30;99.90
23507;DHT22;11930;53.076;18.250;2024-02-21T07:19:28;6.40;99.90
23507;DHT22;11930;53.076;18.250;2024-02-21T07:21:54;6.40;99.90
23507;DHT22;11930;53.076;18.250;2024-02-21T07:24:20;6.40;99.90
23507;DHT22;11930;53.076;18.250;2024-02-21T07:26:46;6.40;99.90
23507;DHT22;11930;53.076;18.250;2024-02-21T07:29:13;6.40;99.90
23507;DHT22;11930;53.076;18.250;2024-02-21T07:31:45;6.40;99.90
23507;DHT22;11930;53.076;18.250;2024-02-21T07:34:11;6.40;99.90
23507;DHT22;11930;53.076;18.250;2024-02-21T07:36:37;6.40;99.90
23507;DHT22;11930;53.076;18.250;2024-02-21T07:39:05;6.50;99.90
23507;DHT22;11930;53.076;18.250;2024-02-21T07:41:31;6.50;99.90
23507;DHT22;11930;53.076;18.250;2024-02-21T07:43:58;6.50;99.90
23507;DHT22;11930;53.076;18.250;2024-02-21T07:46:24;6.60;99.90
23507;DHT22;11930;53.076;18.250;2024-02-21T07:48:50;6.60;99.90
23507;DHT22;11930;53.076;18.250;2024-02-21T07:51:16;6.70;99.90
23507;DHT22;11930;53.076;18.250;2024-02-21T07:53:44;6.70;99.90
23507;DHT22;11930;53.076;18.250;2024-02-21T07:56:14;6.70;99.90
23507;DHT22;11930;53.076;18.250;2024-02-21T07:58:41;6.80;99.90
23507;DHT22;11930;53.076;18.250;2024-02-21T08:01:08;6.80;99.90
23507;DHT22;11930;53.076;18.250;2024-02-21T08:03:35;6.80;99.90
23507;DHT22;11930;53.076;18.250;2024-02-21T08:06:03;6.80;99.90
23507;DHT22;11930;53.076;18.250;2024-02-21T08:08:29;6.80;99.90
23507;DHT22;11930;53.076;18.250;2024-02-21T08:10:55;6.90;99.90
23507;DHT22;11930;53.076;18.250;2024-02-21T08:13:22;6.90;99.90
23507;DHT22;11930;53.076;18.250;2024-02-21T08:15:48;6.90;99.90
23507;DHT22;11930;53.076;18.250;2024-02-21T08:18:14;7.00;99.90
23507;DHT22;11930;53.076;18.250;2024-02-21T08:20:40;7.00;99.90
23507;DHT22;11930;53.076;18.250;2024-02-21T08:23:07;7.00;99.90
23507;DHT22;11930;53.076;18.250;2024-02-21T08:25:33;7.00;99.90
23507;DHT22;11930;53.076;18.250;2024-02-21T08:28:05;7.00;99.90
23507;DHT22;11930;53.076;18.250;2024-02-21T08:30:33;7.00;99.90
23507;DHT22;11930;53.076;18.250;2024-02-21T08:32:59;7.00;99.90
23507;DHT22;11930;53.076;18.250;2024-02-21T08:35:26;7.00;99.90
23507;DHT22;11930;53.076;18.250;2024-02-21T08:37:52;7.00;99.90
23507;DHT22;11930;53.076;18.250;2024-02-21T08:40:18;7.10;99.90
23507;DHT22;11930;53.076;18.250;2024-02-21T08:42:47;7.10;99.90
23507;DHT22;11930;53.076;18.250;2024-02-21T08:45:13;7.10;99.90
23507;DHT22;11930;53.076;18.250;2024-02-21T08:47:40;7.10;99.90
23507;DHT22;11930;53.076;18.250;2024-02-21T08:50:07;7.10;99.90
23507;DHT22;11930;53.076;18.250;2024-02-21T08:52:33;7.10;99.90
23507;DHT22;11930;53.076;18.250;2024-02-21T08:54:59;7.10;99.90
23507;DHT22;11930;53.076;18.250;2024-02-21T08:57:26;7.10;99.90
23507;DHT22;11930;53.076;18.250;2024-02-21T08:59:53;7.10;99.90
23507;DHT22;11930;53.076;18.250;2024-02-21T09:02:22;7.10;99.90
23507;DHT22;11930;53.076;18.250;2024-02-21T09:04:49;7.10;99.90
23507;DHT22;11930;53.076;18.250;2024-02-21T09:07:15;7.10;99.90
23507;DHT22;11930;53.076;18.250;2024-02-21T09:09:41;7.10;99.90
23507;DHT22;11930;53.076;18.250;2024-02-21T09:12:08;7.00;99.90
23507;DHT22;11930;53.076;18.250;2024-02-21T09:14:36;7.00;99.90
23507;DHT22;11930;53.076;18.250;2024-02-21T09:17:03;7.00;99.90
23507;DHT22;11930;53.076;18.250;2024-02-21T09:19:30;7.10;99.90
23507;DHT22;11930;53.076;18.250;2024-02-21T09:21:56;7.10;99.90
23507;DHT22;11930;53.076;18.250;2024-02-21T09:24:22;7.10;99.90
23507;DHT22;11930;53.076;18.250;2024-02-21T09:26:49;7.20;99.90
23507;DHT22;11930;53.076;18.250;2024-02-21T09:29:15;7.20;99.90
23507;DHT22;11930;53.076;18.250;2024-02-21T09:31:42;7.20;99.90
23507;DHT22;11930;53.076;18.250;2024-02-21T09:34:08;7.30;99.90
23507;DHT22;11930;53.076;18.250;2024-02-21T09:36:37;7.20;99.90
23507;DHT22;11930;53.076;18.250;2024-02-21T09:39:04;7.30;99.90
23507;DHT22;11930;53.076;18.250;2024-02-21T09:41:30;7.30;99.90
23507;DHT22;11930;53.076;18.250;2024-02-21T09:43:57;7.20;99.90
23507;DHT22;11930;53.076;18.250;2024-02-21T09:46:55;7.20;99.90
23507;DHT22;11930;53.076;18.250;2024-02-21T09:49:33;7.20;99.90
23507;DHT22;11930;53.076;18.250;2024-02-21T09:52:06;7.30;99.90
23507;DHT22;11930;53.076;18.250;2024-02-21T09:54:35;7.30;99.90
23507;DHT22;11930;53.076;18.250;2024-02-21T09:57:03;7.30;99.90
23507;DHT22;11930;53.076;18.250;2024-02-21T09:59:31;7.40;99.90
23507;DHT22;11930;53.076;18.250;2024-02-21T10:01:58;7.40;99.90
23507;DHT22;11930;53.076;18.250;2024-02-21T10:04:29;7.40;99.90
23507;DHT22;11930;53.076;18.250;2024-02-21T10:06:56;7.40;99.90
23507;DHT22;11930;53.076;18.250;2024-02-21T10:09:22;7.40;99.90
23507;DHT22;11930;53.076;18.250;2024-02-21T10:11:49;7.40;99.90
23507;DHT22;11930;53.076;18.250;2024-02-21T10:14:16;7.40;99.90
23507;DHT22;11930;53.076;18.250;2024-02-21T10:16:48;7.40;99.90
23507;DHT22;11930;53.076;18.250;2024-02-21T10:19:21;7.40;99.90
23507;DHT22;11930;53.076;18.250;2024-02-21T10:22:04;7.40;99.90
23507;DHT22;11930;53.076;18.250;2024-02-21T10:24:31;7.40;99.90
23507;DHT22;11930;53.076;18.250;2024-02-21T10:27:01;7.40;99.90
23507;DHT22;11930;53.076;18.250;2024-02-21T10:29:27;7.40;99.90
23507;DHT22;11930;53.076;18.250;2024-02-21T10:32:04;7.40;99.90
23507;DHT22;11930;53.076;18.250;2024-02-21T10:34:31;7.40;99.90
23507;DHT22;11930;53.076;18.250;2024-02-21T10:37:02;7.40;99.90
23507;DHT22;11930;53.076;18.250;2024-02-21T10:39:39;7.50;99.90
23507;DHT22;11930;53.076;18.250;2024-02-21T10:42:06;7.50;99.90
23507;DHT22;11930;53.076;18.250;2024-02-21T10:44:34;7.50;99.90
23507;DHT22;11930;53.076;18.250;2024-02-21T10:47:10;7.50;99.90
23507;DHT22;11930;53.076;18.250;2024-02-21T10:49:41;7.50;99.90
23507;DHT22;11930;53.076;18.250;2024-02-21T10:52:40;7.40;99.90
23507;DHT22;11930;53.076;18.250;2024-02-21T10:55:04;7.50;99.90
23507;DHT22;11930;53.076;18.250;2024-02-21T10:57:37;7.50;99.90
23507;DHT22;11930;53.076;18.250;2024-02-21T11:00:06;7.50;99.90
23507;DHT22;11930;53.076;18.250;2024-02-21T11:02:38;7.50;99.90
23507;DHT22;11930;53.076;18.250;2024-02-21T11:05:06;7.50;99.90
23507;DHT22;11930;53.076;18.250;2024-02-21T11:07:36;7.60;99.90
23507;DHT22;11930;53.076;18.250;2024-02-21T11:10:03;7.60;99.90
23507;DHT22;11930;53.076;18.250;2024-02-21T11:12:32;7.60;99.90
23507;DHT22;11930;53.076;18.250;2024-02-21T11:15:05;7.70;99.90
23507;DHT22;11930;53.076;18.250;2024-02-21T11:17:32;7.70;99.90
23507;DHT22;11930;53.076;18.250;2024-02-21T11:19:58;7.80;99.90
23507;DHT22;11930;53.076;18.250;2024-02-21T11:22:26;7.80;99.90
23507;DHT22;11930;53.076;18.250;2024-02-21T11:24:55;7.90;99.90
23507;DHT22;11930;53.076;18.250;2024-02-21T11:27:33;7.90;99.90
23507;DHT22;11930;53.076;18.250;2024-02-21T11:30:00;7.90;99.90
23507;DHT22;11930;53.076;18.250;2024-02-21T11:32:31;8.00;99.90
23507;DHT22;11930;53.076;18.250;2024-02-21T11:34:58;8.00;99.90
23507;DHT22;11930;53.076;18.250;2024-02-21T11:37:29;8.00;99.90
23507;DHT22;11930;53.076;18.250;2024-02-21T11:39:56;8.10;99.90
23507;DHT22;11930;53.076;18.250;2024-02-21T11:42:22;8.10;99.90
23507;DHT22;11930;53.076;18.250;2024-02-21T11:44:50;8.20;99.90
23507;DHT22;11930;53.076;18.250;2024-02-21T11:47:16;8.20;99.90
23507;DHT22;11930;53.076;18.250;2024-02-21T11:49:46;8.20;99.90
23507;DHT22;11930;53.076;18.250;2024-02-21T11:52:15;8.30;99.90
23507;DHT22;11930;53.076;18.250;2024-02-21T11:54:42;8.40;99.90
23507;DHT22;11930;53.076;18.250;2024-02-21T11:57:10;8.40;99.90
23507;DHT22;11930;53.076;18.250;2024-02-21T11:59:37;8.40;99.90
23507;DHT22;11930;53.076;18.250;2024-02-21T12:02:06;8.40;99.90
23507;DHT22;11930;53.076;18.250;2024-02-21T12:04:32;8.30;99.90
23507;DHT22;11930;53.076;18.250;2024-02-21T12:06:58;8.30;99.90
23507;DHT22;11930;53.076;18.250;2024-02-21T12:09:25;8.30;99.90
23507;DHT22;11930;53.076;18.250;2024-02-21T12:14:26;8.20;99.90
23507;DHT22;11930;53.076;18.250;2024-02-21T12:16:52;8.20;99.90
23507;DHT22;11930;53.076;18.250;2024-02-21T12:19:18;8.20;99.90
23507;DHT22;11930;53.076;18.250;2024-02-21T12:21:45;8.10;99.90
23507;DHT22;11930;53.076;18.250;2024-02-21T12:24:14;8.10;99.90
23507;DHT22;11930;53.076;18.250;2024-02-21T12:26:41;8.10;99.90
23507;DHT22;11930;53.076;18.250;2024-02-21T12:29:08;8.10;99.90
23507;DHT22;11930;53.076;18.250;2024-02-21T12:31:40;8.10;99.90
23507;DHT22;11930;53.076;18.250;2024-02-21T12:34:06;8.10;99.90
23507;DHT22;11930;53.076;18.250;2024-02-21T12:36:33;8.10;99.90
23507;DHT22;11930;53.076;18.250;2024-02-21T12:38:59;8.10;99.90
23507;DHT22;11930;53.076;18.250;2024-02-21T12:41:28;8.10;99.90
23507;DHT22;11930;53.076;18.250;2024-02-21T12:43:55;8.10;99.90
23507;DHT22;11930;53.076;18.250;2024-02-21T12:46:22;8.10;99.90
23507;DHT22;11930;53.076;18.250;2024-02-21T12:48:50;8.10;99.90
23507;DHT22;11930;53.076;18.250;2024-02-21T12:51:16;8.10;99.90
23507;DHT22;11930;53.076;18.250;2024-02-21T12:53:49;8.00;99.90
23507;DHT22;11930;53.076;18.250;2024-02-21T12:56:16;8.00;99.90
23507;DHT22;11930;53.076;18.250;2024-02-21T12:58:42;8.00;99.90
23507;DHT22;11930;53.076;18.250;2024-02-21T13:01:09;8.00;99.90
23507;DHT22;11930;53.076;18.250;2024-02-21T13:03:36;8.00;99.90
23507;DHT22;11930;53.076;18.250;2024-02-21T13:06:02;8.00;99.90
23507;DHT22;11930;53.076;18.250;2024-02-21T13:08:29;8.00;99.90
23507;DHT22;11930;53.076;18.250;2024-02-21T13:10:55;8.00;99.90
23507;DHT22;11930;53.076;18.250;2024-02-21T13:13:21;8.00;99.90
23507;DHT22;11930;53.076;18.250;2024-02-21T13:15:47;8.00;99.90
23507;DHT22;11930;53.076;18.250;2024-02-21T13:18:13;8.00;99.90
23507;DHT22;11930;53.076;18.250;2024-02-21T13:20:40;8.00;99.90
23507;DHT22;11930;53.076;18.250;2024-02-21T13:23:06;8.00;99.90
23507;DHT22;11930;53.076;18.250;2024-02-21T13:25:32;8.00;99.90
23507;DHT22;11930;53.076;18.250;2024-02-21T13:27:58;8.00;99.90
23507;DHT22;11930;53.076;18.250;2024-02-21T13:30:25;8.00;99.90
23507;DHT22;11930;53.076;18.250;2024-02-21T13:32:51;8.00;99.90
23507;DHT22;11930;53.076;18.250;2024-02-21T13:35:18;8.00;99.90
23507;DHT22;11930;53.076;18.250;2024-02-21T13:37:44;8.00;99.90
23507;DHT22;11930;53.076;18.250;2024-02-21T13:40:11;8.00;99.90
23507;DHT22;11930;53.076;18.250;2024-02-21T13:42:37;8.00;99.90
23507;DHT22;11930;53.076;18.250;2024-02-21T13:45:04;8.00;99.90
23507;DHT22;11930;53.076;18.250;2024-02-21T13:47:34;8.00;99.90
23507;DHT22;11930;53.076;18.250;2024-02-21T13:50:02;8.00;99.90
23507;DHT22;11930;53.076;18.250;2024-02-21T13:52:35;7.90;99.90
23507;DHT22;11930;53.076;18.250;2024-02-21T13:55:02;7.90;99.90
23507;DHT22;11930;53.076;18.250;2024-02-21T13:57:29;7.90;99.90
23507;DHT22;11930;53.076;18.250;2024-02-21T13:59:55;7.90;99.90
23507;DHT22;11930;53.076;18.250;2024-02-21T14:02:21;7.90;99.90
23507;DHT22;11930;53.076;18.250;2024-02-21T14:04:48;7.90;99.90
23507;DHT22;11930;53.076;18.250;2024-02-21T14:07:14;7.90;99.90
23507;DHT22;11930;53.076;18.250;2024-02-21T14:09:40;7.90;99.90
23507;DHT22;11930;53.076;18.250;2024-02-21T14:12:06;7.90;99.90
23507;DHT22;11930;53.076;18.250;2024-02-21T14:14:37;7.90;99.90
23507;DHT22;11930;53.076;18.250;2024-02-21T14:17:03;7.90;99.90
23507;DHT22;11930;53.076;18.250;2024-02-21T14:19:30;7.90;99.90
23507;DHT22;11930;53.076;18.250;2024-02-21T14:21:56;7.90;99.90
23507;DHT22;11930;53.076;18.250;2024-02-21T14:24:23;7.90;99.90
23507;DHT22;11930;53.076;18.250;2024-02-21T14:26:49;8.00;99.90
23507;DHT22;11930;53.076;18.250;2024-02-21T14:29:16;7.90;99.90
23507;DHT22;11930;53.076;18.250;2024-02-21T14:31:42;8.00;99.90
23507;DHT22;11930;53.076;18.250;2024-02-21T14:34:09;7.90;99.90
23507;DHT22;11930;53.076;18.250;2024-02-21T14:36:35;8.00;99.90
23507;DHT22;11930;53.076;18.250;2024-02-21T14:39:01;8.00;99.90
23507;DHT22;11930;53.076;18.250;2024-02-21T14:41:28;8.00;99.90
23507;DHT22;11930;53.076;18.250;2024-02-21T14:43:56;8.00;99.90
23507;DHT22;11930;53.076;18.250;2024-02-21T14:46:25;7.90;99.90
23507;DHT22;11930;53.076;18.250;2024-02-21T14:48:57;7.90;99.90
23507;DHT22;11930;53.076;18.250;2024-02-21T14:51:23;7.90;99.90
23507;DHT22;11930;53.076;18.250;2024-02-21T14:53:50;7.90;99.90
23507;DHT22;11930;53.076;18.250;2024-02-21T14:56:16;7.90;99.90
23507;DHT22;11930;53.076;18.250;2024-02-21T14:58:43;7.90;99.90
23507;DHT22;11930;53.076;18.250;2024-02-21T15:01:09;7.90;99.90
23507;DHT22;11930;53.076;18.250;2024-02-21T15:03:36;7.90;99.90
23507;DHT22;11930;53.076;18.250;2024-02-21T15:06:03;7.90;99.90
23507;DHT22;11930;53.076;18.250;2024-02-21T15:08:29;7.90;99.90
23507;DHT22;11930;53.076;18.250;2024-02-21T15:10:55;7.90;99.90
23507;DHT22;11930;53.076;18.250;2024-02-21T15:13:21;7.90;99.90
23507;DHT22;11930;53.076;18.250;2024-02-21T15:15:48;7.80;99.90
23507;DHT22;11930;53.076;18.250;2024-02-21T15:18:15;7.80;99.90
23507;DHT22;11930;53.076;18.250;2024-02-21T15:20:41;7.80;99.90
23507;DHT22;11930;53.076;18.250;2024-02-21T15:23:07;7.80;99.90
23507;DHT22;11930;53.076;18.250;2024-02-21T15:25:33;7.80;99.90
23507;DHT22;11930;53.076;18.250;2024-02-21T15:28:00;7.80;99.90
23507;DHT22;11930;53.076;18.250;2024-02-21T15:30:28;7.80;99.90
23507;DHT22;11930;53.076;18.250;2024-02-21T15:32:58;7.80;99.90